<?xml version="1.0" encoding="UTF-8" standalone="no" ?>
<gpx xmlns="http://www.topografix.com/GPX/1/1" xmlns:xsi="http://www.w3.org/2001/XMLSchema-instance" xsi:schemaLocation="http://www.topografix.com/GPX/1/1 http://www.topografix.com/GPX/1/1/gpx.xsd" version="1.1" creator="VisuGPX - https://www.visugpx.com">
  <metadata>
    <name>Argentina</name>
    <desc><![CDATA[Downloaded from eMap Software Version 2.75]]></desc>
  </metadata>
  <trk>
    <name><![CDATA[Argentina_52]]></name>
    <extensions>
      <line xmlns="http://www.topografix.com/GPX/gpx_style/0/2">
        <color>ff0000</color>
        <opacity>0.78</opacity>
        <width>0.6000</width>
      </line>
    </extensions>
    <trkseg>
      <trkpt lat="-27.15917" lon="-61.11729">
        <ele>113.092285</ele>
        <time>2005-12-12T22:32:14Z</time>
      </trkpt>
      <trkpt lat="-27.15541" lon="-61.11409">
        <ele>105.882446</ele>
        <time>2005-12-12T22:32:33Z</time>
      </trkpt>
      <trkpt lat="-27.15044" lon="-61.10984">
        <ele>105.401733</ele>
        <time>2005-12-12T22:32:59Z</time>
      </trkpt>
      <trkpt lat="-27.14374" lon="-61.10409">
        <ele>105.882446</ele>
        <time>2005-12-12T22:33:34Z</time>
      </trkpt>
      <trkpt lat="-27.13728" lon="-61.09843">
        <ele>106.363037</ele>
        <time>2005-12-12T22:34:08Z</time>
      </trkpt>
      <trkpt lat="-27.13509" lon="-61.09656">
        <ele>105.882446</ele>
        <time>2005-12-12T22:34:20Z</time>
      </trkpt>
      <trkpt lat="-27.13024" lon="-61.09263">
        <ele>104.921021</ele>
        <time>2005-12-12T22:34:45Z</time>
      </trkpt>
      <trkpt lat="-27.12578" lon="-61.08896">
        <ele>104.921021</ele>
        <time>2005-12-12T22:35:08Z</time>
      </trkpt>
      <trkpt lat="-27.11949" lon="-61.0836">
        <ele>104.921021</ele>
        <time>2005-12-12T22:35:41Z</time>
      </trkpt>
      <trkpt lat="-27.11494" lon="-61.07971">
        <ele>104.44043</ele>
        <time>2005-12-12T22:36:05Z</time>
      </trkpt>
      <trkpt lat="-27.1107" lon="-61.07615">
        <ele>102.998291</ele>
        <time>2005-12-12T22:36:27Z</time>
      </trkpt>
      <trkpt lat="-27.10394" lon="-61.07042">
        <ele>102.5177</ele>
        <time>2005-12-12T22:37:02Z</time>
      </trkpt>
      <trkpt lat="-27.10055" lon="-61.06753">
        <ele>102.998291</ele>
        <time>2005-12-12T22:37:21Z</time>
      </trkpt>
      <trkpt lat="-27.09967" lon="-61.06678">
        <ele>102.5177</ele>
        <time>2005-12-12T22:37:29Z</time>
      </trkpt>
      <trkpt lat="-27.0992" lon="-61.06637">
        <ele>102.037109</ele>
        <time>2005-12-12T22:37:36Z</time>
      </trkpt>
      <trkpt lat="-27.09883" lon="-61.06611">
        <ele>101.556396</ele>
        <time>2005-12-12T22:37:46Z</time>
      </trkpt>
    </trkseg>
  </trk>
</gpx>